METAR v bližini

 

LIPQ - Ronchi Legionari, Italy
Oddaljenost od postaje: JZ 35km
Podatki zajeti: 23/10/2019 23:20
Plitva megla, Delno oblačno
Plitva megla, Delno oblačno
 Veter iz smeri SSV
Veter: SSV 6 km/h
Temperatura: 12°C
Temp. rosišča: 12°C
Vlažnost: 100%
Tlak: 1019 hPa
Stanje: Plitva megla
Oblačnost: Delno oblačno
Vidljivost: 10 km
Podrobnosti o oblakih: Delno oblačno 213 m
2019/10/23 21:20 LIPQ 232120Z 02003KT 9999 MIFG SCT007 12/12 Q1019
LIVT - Trieste, Italy
Oddaljenost od postaje: J 49km
Podatki zajeti: 23/10/2019 22:55
Jasno
Jasno
 Veter iz smeri spremenljiv
Veter: spremenljiv 0 km/h
Temperatura: 16°C
Temp. rosišča: 15°C
Vlažnost: 94%
Tlak: 1018 hPa
Stanje: Jasno
Vidljivost: večja od 10 km
2019/10/23 20:55 LIVT 232055Z /////KT CAVOK 16/15 Q1018 RMK FEW FEW160 QUK / QUL / VIS MAR 20 KM VIS MIN 9999
 
LIVO - Tarvisio, Italy
Oddaljenost od postaje: SSZ 49km
Podatki zajeti: 23/10/2019 19:55
Ni posodobljen
Jasno
Jasno
 Veter iz smeri ZSZ
Veter: ZSZ 7 km/h
Temperatura: 13°C
Temp. rosišča: 9°C
Vlažnost: 77%
Tlak: 1020 hPa
Stanje: Jasno
Vidljivost: večja od 10 km
2019/10/23 17:55 LIVO 231755Z 30004KT CAVOK 13/09 Q1020
LIPI - Rivolto (it-Afb), Italy
Oddaljenost od postaje: ZJZ 57km
Podatki zajeti: 23/10/2019 15:55
Ni posodobljen
Jasno
Jasno
 Veter iz smeri J
Veter: J 7 km/h
Temperatura: 25°C
Temp. rosišča: 13°C
Vlažnost: 47%
Tlak: 1018 hPa
Stanje: Jasno
Vidljivost: večja od 10 km
2019/10/23 13:55 LIPI 231355Z 18004KT CAVOK 25/13 Q1018 RMK SCT SCT200 VIS MIN 9999 WIND THR06 19005KT WIND THR24 21003KT BLU
 
LJLJ - Ljubljana/Brnik, Slovenia
Oddaljenost od postaje: VSV 59km
Podatki zajeti: 23/10/2019 23:30
Plitva megla, Delno oblačno
Plitva megla, Delno oblačno
 Veter iz smeri ZSZ
Veter: ZSZ 6 km/h
Temperatura: 9°C
Temp. rosišča: 8°C
Vlažnost: 94%
Tlak: 1019 hPa
Stanje: Plitva megla
Oblačnost: Delno oblačno
Vidljivost: 10 km
2019/10/23 21:30 LJLJ 232130Z 29003KT 9999 MIFG NSC 09/08 Q1019 NOSIG
LJPZ - Portoroz, Slovenia
Oddaljenost od postaje: J 68km
Podatki zajeti: 23/10/2019 23:30
Pretežno oblačno
Pretežno oblačno
 Veter iz smeri JV
Veter: JV 11 km/h
Temperatura: 14°C
Temp. rosišča: 14°C
Vlažnost: 100%
Tlak: 1018 hPa
Oblačnost: Pretežno oblačno
Vidljivost: 10 km
Podrobnosti o oblakih: Pretežno oblačno 183 m
2019/10/23 21:30 LJPZ 232130Z AUTO 13006KT 9999 BKN006/// 14/14 Q1018
 
LOWK - Klagenfurt(Civ/M, Austria
Oddaljenost od postaje: SV 78km
Podatki zajeti: 23/10/2019 23:20
Plitva megla, Rahlo oblačno
Plitva megla, Rahlo oblačno
 Veter iz smeri spremenljiv
Veter: spremenljiv 2 km/h
Temperatura: 9°C
Temp. rosišča: 9°C
Vlažnost: 100%
Tlak: 1019 hPa
Stanje: Plitva megla
Oblačnost: Rahlo oblačno
Vidljivost: 6 km
Podrobnosti o oblakih: Rahlo oblačno 30 m
2019/10/23 21:20 LOWK 232120Z VRB01KT 6000 MIFG FEW001 09/09 Q1019 TEMPO 1200 BCFG
LIYW - Aviano (usaf), Italy
Oddaljenost od postaje: Z 86km
Podatki zajeti: 20/10/2015 15:58
Ni posodobljen
Jasno
Jasno
 Veter iz smeri JJZ
Veter: JJZ 6 km/h
Temperatura: 17°C
Temp. rosišča: 3°C
Vlažnost: 39%
Tlak: 1016.3 hPa
Oblačnost: Jasno
Vidljivost: 10 km
2015/10/20 13:58 LIYW 201358Z AUTO 21003KT 9999 CLR 17/03 A3001 RMK AO2 SLP167 T01660029
 
LIPA - Aviano (it/Us-Af, Italy
Oddaljenost od postaje: Z 89km
Podatki zajeti: 23/10/2019 21:55
Ni posodobljen
Jasno
Jasno
 Veter iz smeri SSV
Veter: SSV 9 km/h
Temperatura: 14°C
Temp. rosišča: 13°C
Vlažnost: 94%
Tlak: 1018 hPa
Stanje: Jasno
Vidljivost: večja od 10 km
2019/10/23 19:55 LIPA 231955Z 03005KT CAVOK 14/13 Q1018 RMK SKC VIS MIN 9999 WIND THR05 /////KT WIND THR23 /////KT A3008 BLU
LDRI - Rijeka/Omisalj, Croatia
Oddaljenost od postaje: JV 115km
Podatki zajeti: 23/10/2019 23:30
Delno oblačno
Delno oblačno
 Veter iz smeri VJV
Veter: VJV 6 km/h
Temperatura: 13°C
Temp. rosišča: 13°C
Vlažnost: 100%
Tlak: 1019 hPa
Oblačnost: Delno oblačno
Vidljivost: 8 km
2019/10/23 21:30 LDRI 232130Z 12003KT 8000 NSC 13/13 Q1019
 
LIPZ - Venezia/Tessera, Italy
Oddaljenost od postaje: ZJZ 127km
Podatki zajeti: 23/10/2019 23:20
Megla v pasovih, Delno oblačno
Megla v pasovih, Delno oblačno
 Veter iz smeri SV
Veter: SV 7 km/h
Temperatura: 16°C
Temp. rosišča: 15°C
Vlažnost: 94%
Tlak: 1018 hPa
Stanje: Patches of Fog
Oblačnost: Delno oblačno
Vidljivost: 1 km
2019/10/23 21:20 LIPZ 232120Z 05004KT 0500 R04R/P1500N BCFG NSC 16/15 Q1018 NOSIG
LDPL - Pula, Croatia
Oddaljenost od postaje: J 133km
Podatki zajeti: 23/10/2019 23:30
Meglice, Pretežno oblačno
Meglice, Pretežno oblačno
 Veter iz smeri spremenljiv
Veter: spremenljiv 2 km/h
Temperatura: 14°C
Temp. rosišča: 13°C
Vlažnost: 94%
Tlak: 1018 hPa
Stanje: Meglice
Oblačnost: Pretežno oblačno
Vidljivost: 1 km
Podrobnosti o oblakih: Delno oblačno 61 m
Pretežno oblačno 427 m
2019/10/23 21:30 LDPL 232130Z VRB01KT 1100 R27/1000U BR SCT002 BKN014 14/13 Q1018
 
LIPS - Istrana (it-Afb), Italy
Oddaljenost od postaje: ZJZ 136km
Podatki zajeti: 23/10/2019 22:55
Plitva megla, Delno oblačno
Plitva megla, Delno oblačno
 Veter iz smeri spremenljiv
Veter: spremenljiv 0 km/h
Temperatura: 15°C
Temp. rosišča: 14°C
Vlažnost: 94%
Tlak: 1018 hPa
Stanje: Plitva megla
Oblačnost: Delno oblačno
Vidljivost: 5 km
2019/10/23 20:55 LIPS 232055Z /////KT 5000 MIFG NSC 15/14 Q1018
LIVD - Dobbiaco, Italy
Oddaljenost od postaje: ZSZ 137km
Podatki zajeti: 23/10/2019 19:55
Ni posodobljen
Jasno
Jasno
 Veter iz smeri spremenljiv
Veter: spremenljiv 0 km/h
Temperatura: 10°C
Temp. rosišča: 6°C
Vlažnost: 76%
Tlak: 1025 hPa
Stanje: Jasno
Vidljivost: večja od 10 km
2019/10/23 17:55 LIVD 231755Z /////KT CAVOK 10/06 Q1025
 
LJCE - Cerklje, Slovenia
Oddaljenost od postaje: V 139km
Podatki zajeti: 23/10/2019 23:30
Megla, Oblačno
Megla, Oblačno
 Veter iz smeri Z
Veter: Z 4 km/h
Temperatura: 11°C
Temp. rosišča: 11°C
Vlažnost: 100%
Tlak: 1018 hPa
Stanje: Megla
Oblačnost: Oblačno
Vidljivost: 0 km
Podrobnosti o oblakih: Oblačno 183 m
2019/10/23 21:30 LJCE 232130Z AUTO 28002KT 0050 R09///// FG VV006 11/11 Q1018
LOXZ - Zeltweg (mil), Austria
Oddaljenost od postaje: SSV 147km
Podatki zajeti: 23/10/2019 22:50
Rahlo oblačno
Rahlo oblačno
 Veter iz smeri spremenljiv
Veter: spremenljiv 2 km/h
Temperatura: 8°C
Temp. rosišča: 6°C
Vlažnost: 87%
Tlak: 1019 hPa
Oblačnost: Rahlo oblačno
Podrobnosti o oblakih: Rahlo oblačno 9144 m
2019/10/23 20:50 LOXZ 232050Z VRB01KT 20KM FEW300CI 08/06 Q1019